Volk Field
KVOK : now visible

Airfield :











YOU CAN JOIN US ON...

 
LOGIN :

Register | Disclaimer

   EN    FR    IT 

 









Legend :    VFR   Marginal VFR   IFR   Intensive IFR   Very Intensive IFR
Visi :
Ceiling :
>= 8 km
>= 3000ft
5 to 8 km
1000 to 3000 ft
1500m to 5 km
500 to 1000 ft
800 to 1500m
200 to 500 ft
< 800m
< 200 ft
Symbols :   Thunderstorms  Fog  Heavy snow  Heavy precipitations  Wind > 20 kt






- Airport Elevation : 912 ft


KVOK - Volk Field

CURRENT METAR :
  • 110756Z AUTO 25008KT 10SM OVC080 M16/M19 A3022 RMK AO2 SLP259 T11571190 PWINO $

EXPIRED METARs :
  • 110741Z AUTO 26007KT 10SM SCT021 OVC080 M16/M19 A3021 RMK AO2 SLP256 PWINO $
  • 110656Z AUTO 26006KT 10SM OVC020 M16/M20 A3022 RMK AO2 OVC V BKN SLP259 T11631197 PWINO $
  • 110611Z AUTO 27007KT 10SM BKN021 M17/M20 A3022 RMK AO2 BKN V SCT SLPNO PWINO $
  • 110556Z AUTO 27008KT 10SM FEW022 M17/M20 A3023 RMK AO2 SLPNO T11691202 11145 21169 411011169 53001 PWINO $
  • 110456Z 24011KT 10SM CLR M16/M20 A3024 RMK SLPNO

TAF TAF KVOK
Valid from the 10 at 17:00 until the 11 at 23:00 UTC


101700Z 1017/1123 28012G18KT 9999 BKN030 620303 QNH3015INS
BECMG 1022/1023 27010G15KT 9999 SCT030 QNH3021INS
BECMG 1104/1105 25009KT 9999 SKC QNH3022INS
BECMG 1111/1112 30010G15KT 9999 SKC QNH3025INS TXM12/1018Z TNM18/1115Z LAST NO AMDS AFT 1022 NEXT 1109



MET'MAP, your aeronautical weather chart ! - Copyright ORBIFLY December 2007 - Disclaimer

ORBIFLY MET'MAP TEAM :

Programming & Development : Alexandra Zaïnal
Concept & original design : Baudouin d'Aumeries
Assistance for programming : Marc-Olivier Méhu
Technical & hardware support : Manuel Goepfert

Contact : metmap@orbifly.com




SOURCES & CREDITS :

   NOAA       Earth
Advisory